sensor_id;sensor_type;location;lat;lon;timestamp;temperature;humidity
13328;DHT22;6733;51.044;3.746;2023-02-28T00:01:20;3.30;99.90
13328;DHT22;6733;51.044;3.746;2023-02-28T00:03:46;3.30;99.90
13328;DHT22;6733;51.044;3.746;2023-02-28T00:06:13;3.30;99.90
13328;DHT22;6733;51.044;3.746;2023-02-28T00:08:39;3.30;99.90
13328;DHT22;6733;51.044;3.746;2023-02-28T00:11:07;3.30;99.90
13328;DHT22;6733;51.044;3.746;2023-02-28T00:13:35;3.30;99.90
13328;DHT22;6733;51.044;3.746;2023-02-28T00:16:09;3.30;99.90
13328;DHT22;6733;51.044;3.746;2023-02-28T00:18:36;3.30;99.90
13328;DHT22;6733;51.044;3.746;2023-02-28T00:21:03;3.20;99.90
13328;DHT22;6733;51.044;3.746;2023-02-28T00:23:29;3.30;99.90
13328;DHT22;6733;51.044;3.746;2023-02-28T00:25:56;3.20;99.90
13328;DHT22;6733;51.044;3.746;2023-02-28T00:28:22;3.20;99.90
13328;DHT22;6733;51.044;3.746;2023-02-28T00:30:49;3.20;99.90
13328;DHT22;6733;51.044;3.746;2023-02-28T00:33:15;3.20;99.90
13328;DHT22;6733;51.044;3.746;2023-02-28T00:35:42;3.20;99.90
13328;DHT22;6733;51.044;3.746;2023-02-28T00:38:08;3.20;99.90
13328;DHT22;6733;51.044;3.746;2023-02-28T00:40:34;3.20;99.90
13328;DHT22;6733;51.044;3.746;2023-02-28T00:43:01;3.20;99.90
13328;DHT22;6733;51.044;3.746;2023-02-28T00:45:27;3.20;99.90
13328;DHT22;6733;51.044;3.746;2023-02-28T00:47:53;3.10;99.90
13328;DHT22;6733;51.044;3.746;2023-02-28T00:50:19;3.10;99.90
13328;DHT22;6733;51.044;3.746;2023-02-28T00:52:47;3.10;99.90
13328;DHT22;6733;51.044;3.746;2023-02-28T00:55:13;3.10;99.90
13328;DHT22;6733;51.044;3.746;2023-02-28T00:57:40;3.10;99.90
13328;DHT22;6733;51.044;3.746;2023-02-28T01:00:07;3.10;99.90
13328;DHT22;6733;51.044;3.746;2023-02-28T01:02:33;3.10;99.90
13328;DHT22;6733;51.044;3.746;2023-02-28T01:04:59;3.20;99.90
13328;DHT22;6733;51.044;3.746;2023-02-28T01:07:26;3.20;99.90
13328;DHT22;6733;51.044;3.746;2023-02-28T01:09:52;3.10;99.90
13328;DHT22;6733;51.044;3.746;2023-02-28T01:12:18;3.10;99.90
13328;DHT22;6733;51.044;3.746;2023-02-28T01:14:44;3.10;99.90
13328;DHT22;6733;51.044;3.746;2023-02-28T01:17:11;3.20;99.90
13328;DHT22;6733;51.044;3.746;2023-02-28T01:19:37;3.20;99.90
13328;DHT22;6733;51.044;3.746;2023-02-28T01:22:05;3.20;99.90
13328;DHT22;6733;51.044;3.746;2023-02-28T01:24:32;3.10;99.90
13328;DHT22;6733;51.044;3.746;2023-02-28T01:26:58;3.10;99.90
13328;DHT22;6733;51.044;3.746;2023-02-28T01:29:24;3.10;99.90
13328;DHT22;6733;51.044;3.746;2023-02-28T01:31:51;3.10;99.90
13328;DHT22;6733;51.044;3.746;2023-02-28T01:34:17;3.10;99.90
13328;DHT22;6733;51.044;3.746;2023-02-28T01:36:45;3.10;99.90
13328;DHT22;6733;51.044;3.746;2023-02-28T01:39:11;3.10;99.90
13328;DHT22;6733;51.044;3.746;2023-02-28T01:41:38;3.10;99.90
13328;DHT22;6733;51.044;3.746;2023-02-28T01:44:53;3.10;99.90
13328;DHT22;6733;51.044;3.746;2023-02-28T01:46:52;3.10;99.90
13328;DHT22;6733;51.044;3.746;2023-02-28T01:49:19;3.10;99.90
13328;DHT22;6733;51.044;3.746;2023-02-28T01:51:51;3.10;99.90
13328;DHT22;6733;51.044;3.746;2023-02-28T01:54:30;3.10;99.90
13328;DHT22;6733;51.044;3.746;2023-02-28T01:57:15;3.00;99.90
13328;DHT22;6733;51.044;3.746;2023-02-28T01:59:48;3.10;99.90
13328;DHT22;6733;51.044;3.746;2023-02-28T02:02:17;3.00;99.90
13328;DHT22;6733;51.044;3.746;2023-02-28T02:05:09;3.00;99.90
13328;DHT22;6733;51.044;3.746;2023-02-28T02:07:38;3.00;99.90
13328;DHT22;6733;51.044;3.746;2023-02-28T02:12:40;3.00;99.90
13328;DHT22;6733;51.044;3.746;2023-02-28T02:15:16;3.00;99.90
13328;DHT22;6733;51.044;3.746;2023-02-28T02:17:52;3.00;99.90
13328;DHT22;6733;51.044;3.746;2023-02-28T02:38:49;2.80;99.90
13328;DHT22;6733;51.044;3.746;2023-02-28T02:41:24;2.80;99.90
13328;DHT22;6733;51.044;3.746;2023-02-28T02:44:19;2.80;99.90
13328;DHT22;6733;51.044;3.746;2023-02-28T02:46:48;2.80;99.90
13328;DHT22;6733;51.044;3.746;2023-02-28T02:49:28;2.80;99.90
13328;DHT22;6733;51.044;3.746;2023-02-28T02:51:58;2.80;99.90
13328;DHT22;6733;51.044;3.746;2023-02-28T02:54:29;2.70;99.90
13328;DHT22;6733;51.044;3.746;2023-02-28T02:57:02;2.70;99.90
13328;DHT22;6733;51.044;3.746;2023-02-28T02:59:30;2.70;99.90
13328;DHT22;6733;51.044;3.746;2023-02-28T03:02:03;2.70;99.90
13328;DHT22;6733;51.044;3.746;2023-02-28T03:04:40;2.70;99.90
13328;DHT22;6733;51.044;3.746;2023-02-28T03:07:08;2.70;99.90
13328;DHT22;6733;51.044;3.746;2023-02-28T03:09:36;2.70;99.90
13328;DHT22;6733;51.044;3.746;2023-02-28T03:12:03;2.60;99.90
13328;DHT22;6733;51.044;3.746;2023-02-28T03:14:50;2.60;99.90
13328;DHT22;6733;51.044;3.746;2023-02-28T03:23:13;2.50;99.90
13328;DHT22;6733;51.044;3.746;2023-02-28T03:26:02;2.60;99.90
13328;DHT22;6733;51.044;3.746;2023-02-28T03:34:10;2.60;99.90
13328;DHT22;6733;51.044;3.746;2023-02-28T03:36:41;2.60;99.90
13328;DHT22;6733;51.044;3.746;2023-02-28T03:39:27;2.60;99.90
13328;DHT22;6733;51.044;3.746;2023-02-28T03:41:58;2.70;99.90
13328;DHT22;6733;51.044;3.746;2023-02-28T03:44:55;2.70;99.90
13328;DHT22;6733;51.044;3.746;2023-02-28T03:47:38;2.70;99.90
13328;DHT22;6733;51.044;3.746;2023-02-28T03:50:07;2.80;99.90
13328;DHT22;6733;51.044;3.746;2023-02-28T03:52:39;2.90;99.90
13328;DHT22;6733;51.044;3.746;2023-02-28T03:55:11;2.90;99.90
13328;DHT22;6733;51.044;3.746;2023-02-28T03:57:53;3.00;99.90
13328;DHT22;6733;51.044;3.746;2023-02-28T04:00:30;3.10;99.90
13328;DHT22;6733;51.044;3.746;2023-02-28T04:02:58;3.10;99.90
13328;DHT22;6733;51.044;3.746;2023-02-28T04:05:25;3.20;99.90
13328;DHT22;6733;51.044;3.746;2023-02-28T04:07:52;3.20;99.90
13328;DHT22;6733;51.044;3.746;2023-02-28T04:10:20;3.30;99.90
13328;DHT22;6733;51.044;3.746;2023-02-28T04:12:46;3.30;99.90
13328;DHT22;6733;51.044;3.746;2023-02-28T04:15:12;3.40;99.90
13328;DHT22;6733;51.044;3.746;2023-02-28T04:17:38;3.40;99.90
13328;DHT22;6733;51.044;3.746;2023-02-28T04:20:05;3.40;99.90
13328;DHT22;6733;51.044;3.746;2023-02-28T04:22:35;3.50;99.90
13328;DHT22;6733;51.044;3.746;2023-02-28T04:25:02;3.50;99.90
13328;DHT22;6733;51.044;3.746;2023-02-28T04:27:29;3.60;99.90
13328;DHT22;6733;51.044;3.746;2023-02-28T04:29:55;3.60;99.90
13328;DHT22;6733;51.044;3.746;2023-02-28T04:32:21;3.70;99.90
13328;DHT22;6733;51.044;3.746;2023-02-28T04:34:47;3.70;99.90
13328;DHT22;6733;51.044;3.746;2023-02-28T04:37:13;3.70;99.90
13328;DHT22;6733;51.044;3.746;2023-02-28T04:39:40;3.80;99.90
13328;DHT22;6733;51.044;3.746;2023-02-28T04:42:06;3.80;99.90
13328;DHT22;6733;51.044;3.746;2023-02-28T04:44:32;3.90;99.90
13328;DHT22;6733;51.044;3.746;2023-02-28T04:46:59;3.90;99.90
13328;DHT22;6733;51.044;3.746;2023-02-28T04:49:25;3.90;99.90
13328;DHT22;6733;51.044;3.746;2023-02-28T04:51:51;3.90;99.90
13328;DHT22;6733;51.044;3.746;2023-02-28T04:54:18;4.00;99.90
13328;DHT22;6733;51.044;3.746;2023-02-28T04:56:45;4.00;99.90
13328;DHT22;6733;51.044;3.746;2023-02-28T04:59:11;4.00;99.90
13328;DHT22;6733;51.044;3.746;2023-02-28T05:01:40;4.00;99.90
13328;DHT22;6733;51.044;3.746;2023-02-28T05:04:06;4.00;99.90
13328;DHT22;6733;51.044;3.746;2023-02-28T05:06:33;4.10;99.90
13328;DHT22;6733;51.044;3.746;2023-02-28T05:08:59;4.10;99.90
13328;DHT22;6733;51.044;3.746;2023-02-28T05:11:31;4.10;99.90
13328;DHT22;6733;51.044;3.746;2023-02-28T05:14:13;4.10;99.90
13328;DHT22;6733;51.044;3.746;2023-02-28T05:16:40;4.20;99.90
13328;DHT22;6733;51.044;3.746;2023-02-28T05:19:06;4.20;99.90
13328;DHT22;6733;51.044;3.746;2023-02-28T05:24:31;4.20;99.90
13328;DHT22;6733;51.044;3.746;2023-02-28T05:26:58;4.20;99.90
13328;DHT22;6733;51.044;3.746;2023-02-28T05:29:24;4.30;99.90
13328;DHT22;6733;51.044;3.746;2023-02-28T05:31:50;4.30;99.90
13328;DHT22;6733;51.044;3.746;2023-02-28T05:34:17;4.30;99.90
13328;DHT22;6733;51.044;3.746;2023-02-28T05:36:43;4.40;99.90
13328;DHT22;6733;51.044;3.746;2023-02-28T05:39:09;4.40;99.90
13328;DHT22;6733;51.044;3.746;2023-02-28T05:41:42;4.40;99.90
13328;DHT22;6733;51.044;3.746;2023-02-28T05:44:09;4.50;99.90
13328;DHT22;6733;51.044;3.746;2023-02-28T05:46:35;4.50;99.90
13328;DHT22;6733;51.044;3.746;2023-02-28T05:49:02;4.50;99.90
13328;DHT22;6733;51.044;3.746;2023-02-28T05:51:28;4.50;99.90
13328;DHT22;6733;51.044;3.746;2023-02-28T05:53:54;4.50;99.90
13328;DHT22;6733;51.044;3.746;2023-02-28T05:56:24;4.50;99.90
13328;DHT22;6733;51.044;3.746;2023-02-28T05:58:50;4.50;99.90
13328;DHT22;6733;51.044;3.746;2023-02-28T06:01:23;4.50;99.90
13328;DHT22;6733;51.044;3.746;2023-02-28T06:03:50;4.50;99.90
13328;DHT22;6733;51.044;3.746;2023-02-28T06:06:16;4.60;99.90
13328;DHT22;6733;51.044;3.746;2023-02-28T06:08:43;4.60;99.90
13328;DHT22;6733;51.044;3.746;2023-02-28T06:11:10;4.60;99.90
13328;DHT22;6733;51.044;3.746;2023-02-28T06:13:36;4.50;99.90
13328;DHT22;6733;51.044;3.746;2023-02-28T06:16:03;4.60;99.90
13328;DHT22;6733;51.044;3.746;2023-02-28T06:18:29;4.60;99.90
13328;DHT22;6733;51.044;3.746;2023-02-28T06:20:55;4.60;99.90
13328;DHT22;6733;51.044;3.746;2023-02-28T06:23:22;4.60;99.90
13328;DHT22;6733;51.044;3.746;2023-02-28T06:25:48;4.60;99.90
13328;DHT22;6733;51.044;3.746;2023-02-28T06:28:15;4.60;99.90
13328;DHT22;6733;51.044;3.746;2023-02-28T06:30:41;4.70;99.90
13328;DHT22;6733;51.044;3.746;2023-02-28T06:33:07;4.60;99.90
13328;DHT22;6733;51.044;3.746;2023-02-28T06:35:34;4.70;99.90
13328;DHT22;6733;51.044;3.746;2023-02-28T06:38:01;4.70;99.90
13328;DHT22;6733;51.044;3.746;2023-02-28T06:40:27;4.60;99.90
13328;DHT22;6733;51.044;3.746;2023-02-28T06:42:53;4.70;99.90
13328;DHT22;6733;51.044;3.746;2023-02-28T06:45:19;4.80;99.90
13328;DHT22;6733;51.044;3.746;2023-02-28T06:47:45;4.80;99.90
13328;DHT22;6733;51.044;3.746;2023-02-28T06:50:16;4.80;99.90
13328;DHT22;6733;51.044;3.746;2023-02-28T06:52:46;4.80;99.90
13328;DHT22;6733;51.044;3.746;2023-02-28T06:55:12;4.80;99.90
13328;DHT22;6733;51.044;3.746;2023-02-28T06:57:39;4.80;99.90
13328;DHT22;6733;51.044;3.746;2023-02-28T07:00:09;4.80;99.90
13328;DHT22;6733;51.044;3.746;2023-02-28T07:02:36;4.80;99.90
13328;DHT22;6733;51.044;3.746;2023-02-28T07:05:04;4.80;99.90
13328;DHT22;6733;51.044;3.746;2023-02-28T07:07:31;4.90;99.90
13328;DHT22;6733;51.044;3.746;2023-02-28T07:09:58;4.90;99.90
13328;DHT22;6733;51.044;3.746;2023-02-28T07:12:24;5.00;99.90
13328;DHT22;6733;51.044;3.746;2023-02-28T07:14:50;5.00;99.90
13328;DHT22;6733;51.044;3.746;2023-02-28T07:17:17;5.00;99.90
13328;DHT22;6733;51.044;3.746;2023-02-28T07:19:43;5.00;99.90
13328;DHT22;6733;51.044;3.746;2023-02-28T07:22:09;5.00;99.90
13328;DHT22;6733;51.044;3.746;2023-02-28T07:24:35;5.00;99.90
13328;DHT22;6733;51.044;3.746;2023-02-28T07:27:01;5.10;99.90
13328;DHT22;6733;51.044;3.746;2023-02-28T07:29:27;5.10;99.90
13328;DHT22;6733;51.044;3.746;2023-02-28T07:31:54;5.10;99.90
13328;DHT22;6733;51.044;3.746;2023-02-28T07:34:21;5.10;99.90
13328;DHT22;6733;51.044;3.746;2023-02-28T07:36:47;5.10;99.90
13328;DHT22;6733;51.044;3.746;2023-02-28T07:39:14;5.10;99.90
13328;DHT22;6733;51.044;3.746;2023-02-28T07:41:40;5.20;99.90
13328;DHT22;6733;51.044;3.746;2023-02-28T07:44:10;5.30;99.90
13328;DHT22;6733;51.044;3.746;2023-02-28T07:46:37;5.40;99.90
13328;DHT22;6733;51.044;3.746;2023-02-28T07:49:03;5.40;99.90
13328;DHT22;6733;51.044;3.746;2023-02-28T07:51:30;5.50;99.90
13328;DHT22;6733;51.044;3.746;2023-02-28T07:53:57;5.60;99.90
13328;DHT22;6733;51.044;3.746;2023-02-28T07:56:22;5.60;99.90
13328;DHT22;6733;51.044;3.746;2023-02-28T07:58:49;5.70;99.90
13328;DHT22;6733;51.044;3.746;2023-02-28T08:01:15;5.80;99.90
13328;DHT22;6733;51.044;3.746;2023-02-28T08:03:41;5.40;99.90
13328;DHT22;6733;51.044;3.746;2023-02-28T08:06:14;4.60;99.90
13328;DHT22;6733;51.044;3.746;2023-02-28T08:08:41;4.40;99.90
13328;DHT22;6733;51.044;3.746;2023-02-28T08:11:07;4.10;99.90
13328;DHT22;6733;51.044;3.746;2023-02-28T08:13:34;4.10;99.90
13328;DHT22;6733;51.044;3.746;2023-02-28T08:16:01;4.10;99.90
13328;DHT22;6733;51.044;3.746;2023-02-28T08:18:27;4.00;99.90
13328;DHT22;6733;51.044;3.746;2023-02-28T08:20:54;4.10;99.90
13328;DHT22;6733;51.044;3.746;2023-02-28T08:23:20;4.10;99.90
13328;DHT22;6733;51.044;3.746;2023-02-28T08:25:53;4.20;99.90
13328;DHT22;6733;51.044;3.746;2023-02-28T08:28:20;4.30;99.90
13328;DHT22;6733;51.044;3.746;2023-02-28T08:30:46;4.20;99.90
13328;DHT22;6733;51.044;3.746;2023-02-28T08:33:12;4.30;99.90
13328;DHT22;6733;51.044;3.746;2023-02-28T08:35:38;4.40;99.90
13328;DHT22;6733;51.044;3.746;2023-02-28T08:38:05;4.40;99.90
13328;DHT22;6733;51.044;3.746;2023-02-28T08:40:31;4.40;99.90
13328;DHT22;6733;51.044;3.746;2023-02-28T08:42:57;4.20;99.90
13328;DHT22;6733;51.044;3.746;2023-02-28T08:45:24;4.10;99.90
13328;DHT22;6733;51.044;3.746;2023-02-28T08:47:50;4.00;99.90
13328;DHT22;6733;51.044;3.746;2023-02-28T08:50:18;4.10;99.90
13328;DHT22;6733;51.044;3.746;2023-02-28T08:52:44;4.10;99.90
13328;DHT22;6733;51.044;3.746;2023-02-28T08:55:10;4.10;99.90
13328;DHT22;6733;51.044;3.746;2023-02-28T08:57:36;4.10;99.90
13328;DHT22;6733;51.044;3.746;2023-02-28T09:00:03;4.10;99.90
13328;DHT22;6733;51.044;3.746;2023-02-28T09:02:31;4.20;99.90
13328;DHT22;6733;51.044;3.746;2023-02-28T09:04:57;4.10;99.90
13328;DHT22;6733;51.044;3.746;2023-02-28T09:07:24;4.10;99.90
13328;DHT22;6733;51.044;3.746;2023-02-28T09:09:51;4.10;99.90
13328;DHT22;6733;51.044;3.746;2023-02-28T09:12:24;4.00;99.90
13328;DHT22;6733;51.044;3.746;2023-02-28T09:14:51;4.00;99.90
13328;DHT22;6733;51.044;3.746;2023-02-28T09:17:18;4.00;99.90
13328;DHT22;6733;51.044;3.746;2023-02-28T09:19:44;4.10;99.90
13328;DHT22;6733;51.044;3.746;2023-02-28T09:22:11;4.10;99.90
13328;DHT22;6733;51.044;3.746;2023-02-28T09:24:38;4.00;99.90
13328;DHT22;6733;51.044;3.746;2023-02-28T09:27:04;3.90;99.90
13328;DHT22;6733;51.044;3.746;2023-02-28T09:29:32;4.00;99.90
13328;DHT22;6733;51.044;3.746;2023-02-28T09:31:58;4.00;99.90
13328;DHT22;6733;51.044;3.746;2023-02-28T09:34:28;4.10;99.90
13328;DHT22;6733;51.044;3.746;2023-02-28T09:36:56;4.10;99.90
13328;DHT22;6733;51.044;3.746;2023-02-28T09:39:23;4.00;99.90
13328;DHT22;6733;51.044;3.746;2023-02-28T09:41:54;4.10;99.90
13328;DHT22;6733;51.044;3.746;2023-02-28T09:44:42;4.10;99.90
13328;DHT22;6733;51.044;3.746;2023-02-28T09:47:42;4.30;99.90
13328;DHT22;6733;51.044;3.746;2023-02-28T09:50:27;4.30;99.90
13328;DHT22;6733;51.044;3.746;2023-02-28T09:52:55;4.20;99.90
13328;DHT22;6733;51.044;3.746;2023-02-28T09:55:30;4.20;99.90
13328;DHT22;6733;51.044;3.746;2023-02-28T09:57:57;4.20;99.90
13328;DHT22;6733;51.044;3.746;2023-02-28T10:00:33;4.30;99.90
13328;DHT22;6733;51.044;3.746;2023-02-28T10:11:01;4.50;99.90
13328;DHT22;6733;51.044;3.746;2023-02-28T10:16:29;4.50;99.90
13328;DHT22;6733;51.044;3.746;2023-02-28T10:18:59;4.40;99.90
13328;DHT22;6733;51.044;3.746;2023-02-28T10:21:35;4.50;99.90
13328;DHT22;6733;51.044;3.746;2023-02-28T10:24:32;4.60;99.90
13328;DHT22;6733;51.044;3.746;2023-02-28T10:29:42;4.80;99.90
13328;DHT22;6733;51.044;3.746;2023-02-28T10:32:13;4.90;99.90
13328;DHT22;6733;51.044;3.746;2023-02-28T10:34:40;5.00;99.90
13328;DHT22;6733;51.044;3.746;2023-02-28T10:37:06;5.00;99.90
13328;DHT22;6733;51.044;3.746;2023-02-28T10:39:44;5.00;99.90
13328;DHT22;6733;51.044;3.746;2023-02-28T10:42:38;5.10;99.90
13328;DHT22;6733;51.044;3.746;2023-02-28T10:45:16;5.20;99.90
13328;DHT22;6733;51.044;3.746;2023-02-28T10:47:55;5.40;99.90
13328;DHT22;6733;51.044;3.746;2023-02-28T10:55:41;5.50;99.90
13328;DHT22;6733;51.044;3.746;2023-02-28T10:58:29;5.50;99.90
13328;DHT22;6733;51.044;3.746;2023-02-28T11:00:55;5.90;99.90
13328;DHT22;6733;51.044;3.746;2023-02-28T11:03:31;6.20;99.90
13328;DHT22;6733;51.044;3.746;2023-02-28T11:05:58;6.10;99.90
13328;DHT22;6733;51.044;3.746;2023-02-28T11:08:24;6.30;99.90
13328;DHT22;6733;51.044;3.746;2023-02-28T11:10:56;6.80;99.90
13328;DHT22;6733;51.044;3.746;2023-02-28T11:13:31;6.50;99.90
13328;DHT22;6733;51.044;3.746;2023-02-28T11:16:00;6.40;99.90
13328;DHT22;6733;51.044;3.746;2023-02-28T11:21:09;6.40;99.90
13328;DHT22;6733;51.044;3.746;2023-02-28T11:23:40;6.70;99.90
13328;DHT22;6733;51.044;3.746;2023-02-28T11:26:07;6.50;99.90
13328;DHT22;6733;51.044;3.746;2023-02-28T11:28:40;6.50;99.90
13328;DHT22;6733;51.044;3.746;2023-02-28T11:33:52;6.80;99.90
13328;DHT22;6733;51.044;3.746;2023-02-28T11:36:25;6.50;99.90
13328;DHT22;6733;51.044;3.746;2023-02-28T11:38:53;6.30;99.90
13328;DHT22;6733;51.044;3.746;2023-02-28T11:41:43;6.40;99.90
13328;DHT22;6733;51.044;3.746;2023-02-28T11:50:47;7.10;99.10
13328;DHT22;6733;51.044;3.746;2023-02-28T11:53:00;7.40;99.00
13328;DHT22;6733;51.044;3.746;2023-02-28T11:55:48;7.10;97.40
13328;DHT22;6733;51.044;3.746;2023-02-28T12:06:38;6.80;96.80
13328;DHT22;6733;51.044;3.746;2023-02-28T12:09:44;7.00;96.70
13328;DHT22;6733;51.044;3.746;2023-02-28T12:12:43;7.20;96.60
13328;DHT22;6733;51.044;3.746;2023-02-28T12:23:17;7.50;94.60
13328;DHT22;6733;51.044;3.746;2023-02-28T12:26:06;7.50;94.50
13328;DHT22;6733;51.044;3.746;2023-02-28T12:28:41;7.40;93.80
13328;DHT22;6733;51.044;3.746;2023-02-28T12:33:43;7.40;93.50
13328;DHT22;6733;51.044;3.746;2023-02-28T12:36:16;7.30;93.30
13328;DHT22;6733;51.044;3.746;2023-02-28T12:38:54;7.10;93.30
13328;DHT22;6733;51.044;3.746;2023-02-28T12:43:58;7.20;91.80
13328;DHT22;6733;51.044;3.746;2023-02-28T12:46:30;7.20;91.40
13328;DHT22;6733;51.044;3.746;2023-02-28T12:49:29;7.30;91.60
13328;DHT22;6733;51.044;3.746;2023-02-28T12:51:59;7.10;90.60
13328;DHT22;6733;51.044;3.746;2023-02-28T12:54:45;7.40;90.40
13328;DHT22;6733;51.044;3.746;2023-02-28T12:57:22;7.60;89.30
13328;DHT22;6733;51.044;3.746;2023-02-28T13:00:00;7.40;90.30
13328;DHT22;6733;51.044;3.746;2023-02-28T13:11:02;7.30;88.30
13328;DHT22;6733;51.044;3.746;2023-02-28T13:13:30;7.30;88.00
13328;DHT22;6733;51.044;3.746;2023-02-28T13:18:35;7.00;88.80
13328;DHT22;6733;51.044;3.746;2023-02-28T13:21:04;7.10;87.20
13328;DHT22;6733;51.044;3.746;2023-02-28T13:23:56;7.10;88.30
13328;DHT22;6733;51.044;3.746;2023-02-28T13:31:27;7.20;86.60
13328;DHT22;6733;51.044;3.746;2023-02-28T13:36:29;7.30;87.80
13328;DHT22;6733;51.044;3.746;2023-02-28T13:39:03;6.90;85.70
13328;DHT22;6733;51.044;3.746;2023-02-28T13:41:48;6.80;86.80
13328;DHT22;6733;51.044;3.746;2023-02-28T13:54:39;7.20;85.50
13328;DHT22;6733;51.044;3.746;2023-02-28T13:57:23;6.80;85.60
13328;DHT22;6733;51.044;3.746;2023-02-28T14:05:34;6.90;85.40
13328;DHT22;6733;51.044;3.746;2023-02-28T14:08:16;7.10;86.60
13328;DHT22;6733;51.044;3.746;2023-02-28T14:10:47;7.30;86.00
13328;DHT22;6733;51.044;3.746;2023-02-28T14:16:05;7.30;86.60
13328;DHT22;6733;51.044;3.746;2023-02-28T14:18:36;7.20;86.10
13328;DHT22;6733;51.044;3.746;2023-02-28T14:21:23;7.20;86.60
13328;DHT22;6733;51.044;3.746;2023-02-28T14:35:09;9.20;84.80
13328;DHT22;6733;51.044;3.746;2023-02-28T14:37:39;9.60;82.80
13328;DHT22;6733;51.044;3.746;2023-02-28T14:40:21;10.10;81.30
13328;DHT22;6733;51.044;3.746;2023-02-28T14:43:01;10.60;80.90
13328;DHT22;6733;51.044;3.746;2023-02-28T14:45:30;10.70;78.50
13328;DHT22;6733;51.044;3.746;2023-02-28T14:47:57;10.30;79.10
13328;DHT22;6733;51.044;3.746;2023-02-28T14:50:34;10.80;78.40
13328;DHT22;6733;51.044;3.746;2023-02-28T14:53:02;10.30;78.40
13328;DHT22;6733;51.044;3.746;2023-02-28T14:55:34;10.70;77.90
13328;DHT22;6733;51.044;3.746;2023-02-28T14:58:04;11.20;77.10
13328;DHT22;6733;51.044;3.746;2023-02-28T15:00:34;9.60;78.00
13328;DHT22;6733;51.044;3.746;2023-02-28T15:03:39;10.90;77.80
13328;DHT22;6733;51.044;3.746;2023-02-28T15:06:13;10.90;75.70
13328;DHT22;6733;51.044;3.746;2023-02-28T15:08:39;10.30;75.90
13328;DHT22;6733;51.044;3.746;2023-02-28T15:11:16;10.50;75.40
13328;DHT22;6733;51.044;3.746;2023-02-28T15:13:48;10.30;75.70
13328;DHT22;6733;51.044;3.746;2023-02-28T15:16:26;10.90;75.50
13328;DHT22;6733;51.044;3.746;2023-02-28T15:18:59;10.80;74.50
13328;DHT22;6733;51.044;3.746;2023-02-28T15:21:32;10.30;75.00
13328;DHT22;6733;51.044;3.746;2023-02-28T15:24:19;9.60;76.40
13328;DHT22;6733;51.044;3.746;2023-02-28T15:27:04;9.20;76.80
13328;DHT22;6733;51.044;3.746;2023-02-28T15:29:37;9.60;76.50
13328;DHT22;6733;51.044;3.746;2023-02-28T15:34:52;10.80;75.60
13328;DHT22;6733;51.044;3.746;2023-02-28T15:40:28;11.10;74.20
13328;DHT22;6733;51.044;3.746;2023-02-28T15:43:15;11.70;73.70
13328;DHT22;6733;51.044;3.746;2023-02-28T15:45:48;10.60;74.30
13328;DHT22;6733;51.044;3.746;2023-02-28T15:51:07;11.60;73.20
13328;DHT22;6733;51.044;3.746;2023-02-28T15:53:51;11.00;72.60
13328;DHT22;6733;51.044;3.746;2023-02-28T15:56:28;12.00;71.70
13328;DHT22;6733;51.044;3.746;2023-02-28T15:59:03;9.40;75.10
13328;DHT22;6733;51.044;3.746;2023-02-28T16:01:33;7.60;81.00
13328;DHT22;6733;51.044;3.746;2023-02-28T16:04:13;7.30;82.80
13328;DHT22;6733;51.044;3.746;2023-02-28T16:09:12;6.60;84.90
13328;DHT22;6733;51.044;3.746;2023-02-28T16:11:42;6.30;85.10
13328;DHT22;6733;51.044;3.746;2023-02-28T16:14:17;6.10;86.30
13328;DHT22;6733;51.044;3.746;2023-02-28T16:16:48;6.10;86.60
13328;DHT22;6733;51.044;3.746;2023-02-28T16:19:14;6.10;87.20
13328;DHT22;6733;51.044;3.746;2023-02-28T16:21:40;6.10;87.20
13328;DHT22;6733;51.044;3.746;2023-02-28T16:24:07;5.90;87.30
13328;DHT22;6733;51.044;3.746;2023-02-28T16:26:33;5.90;88.80
13328;DHT22;6733;51.044;3.746;2023-02-28T16:29:01;5.80;89.00
13328;DHT22;6733;51.044;3.746;2023-02-28T16:31:27;5.80;89.40
13328;DHT22;6733;51.044;3.746;2023-02-28T16:33:54;5.80;89.60
13328;DHT22;6733;51.044;3.746;2023-02-28T16:36:23;5.80;90.00
13328;DHT22;6733;51.044;3.746;2023-02-28T16:38:54;5.70;90.00
13328;DHT22;6733;51.044;3.746;2023-02-28T16:41:28;5.70;90.40
13328;DHT22;6733;51.044;3.746;2023-02-28T16:43:55;5.70;90.30
13328;DHT22;6733;51.044;3.746;2023-02-28T16:46:31;5.60;90.60
13328;DHT22;6733;51.044;3.746;2023-02-28T16:48:59;5.50;90.70
13328;DHT22;6733;51.044;3.746;2023-02-28T16:51:25;5.40;90.80
13328;DHT22;6733;51.044;3.746;2023-02-28T16:53:51;5.40;91.10
13328;DHT22;6733;51.044;3.746;2023-02-28T16:56:22;5.50;91.30
13328;DHT22;6733;51.044;3.746;2023-02-28T16:58:50;5.40;90.90
13328;DHT22;6733;51.044;3.746;2023-02-28T17:01:18;5.40;91.10
13328;DHT22;6733;51.044;3.746;2023-02-28T17:03:48;5.30;91.30
13328;DHT22;6733;51.044;3.746;2023-02-28T17:06:26;5.20;91.30
13328;DHT22;6733;51.044;3.746;2023-02-28T17:08:57;5.20;91.50
13328;DHT22;6733;51.044;3.746;2023-02-28T17:11:23;5.10;91.80
13328;DHT22;6733;51.044;3.746;2023-02-28T17:13:50;5.10;92.10
13328;DHT22;6733;51.044;3.746;2023-02-28T17:18:59;5.10;92.40
13328;DHT22;6733;51.044;3.746;2023-02-28T17:21:26;5.00;92.70
13328;DHT22;6733;51.044;3.746;2023-02-28T17:23:52;5.00;92.90
13328;DHT22;6733;51.044;3.746;2023-02-28T17:26:20;4.90;92.90
13328;DHT22;6733;51.044;3.746;2023-02-28T17:28:48;4.90;93.30
13328;DHT22;6733;51.044;3.746;2023-02-28T17:31:15;4.80;93.60
13328;DHT22;6733;51.044;3.746;2023-02-28T17:33:41;4.80;93.80
13328;DHT22;6733;51.044;3.746;2023-02-28T17:36:17;4.80;94.00
13328;DHT22;6733;51.044;3.746;2023-02-28T17:38:45;4.70;94.00
13328;DHT22;6733;51.044;3.746;2023-02-28T17:41:11;4.70;94.30
13328;DHT22;6733;51.044;3.746;2023-02-28T17:43:37;4.50;94.30
13328;DHT22;6733;51.044;3.746;2023-02-28T17:46:04;4.60;94.40
13328;DHT22;6733;51.044;3.746;2023-02-28T17:48:33;4.50;94.50
13328;DHT22;6733;51.044;3.746;2023-02-28T17:51:01;4.60;94.40
13328;DHT22;6733;51.044;3.746;2023-02-28T17:53:27;4.50;94.80
13328;DHT22;6733;51.044;3.746;2023-02-28T17:55:53;4.50;94.60
13328;DHT22;6733;51.044;3.746;2023-02-28T17:58:20;4.50;94.70
13328;DHT22;6733;51.044;3.746;2023-02-28T18:00:46;4.50;94.80
13328;DHT22;6733;51.044;3.746;2023-02-28T18:03:15;4.60;94.90
13328;DHT22;6733;51.044;3.746;2023-02-28T18:05:41;4.60;94.80
13328;DHT22;6733;51.044;3.746;2023-02-28T18:08:10;4.60;94.80
13328;DHT22;6733;51.044;3.746;2023-02-28T18:10:37;4.70;94.90
13328;DHT22;6733;51.044;3.746;2023-02-28T18:13:03;4.70;94.90
13328;DHT22;6733;51.044;3.746;2023-02-28T18:15:29;4.70;94.90
13328;DHT22;6733;51.044;3.746;2023-02-28T18:17:55;4.70;95.10
13328;DHT22;6733;51.044;3.746;2023-02-28T18:20:21;4.80;95.30
13328;DHT22;6733;51.044;3.746;2023-02-28T18:22:47;4.80;95.20
13328;DHT22;6733;51.044;3.746;2023-02-28T18:25:13;4.80;95.10
13328;DHT22;6733;51.044;3.746;2023-02-28T18:27:42;4.80;95.50
13328;DHT22;6733;51.044;3.746;2023-02-28T18:30:20;4.80;95.40
13328;DHT22;6733;51.044;3.746;2023-02-28T18:32:47;4.80;95.50
13328;DHT22;6733;51.044;3.746;2023-02-28T18:35:13;4.80;95.50
13328;DHT22;6733;51.044;3.746;2023-02-28T18:37:39;4.80;95.70
13328;DHT22;6733;51.044;3.746;2023-02-28T18:40:06;4.70;95.60
13328;DHT22;6733;51.044;3.746;2023-02-28T18:42:32;4.70;95.70
13328;DHT22;6733;51.044;3.746;2023-02-28T18:44:58;4.70;95.60
13328;DHT22;6733;51.044;3.746;2023-02-28T18:47:24;4.70;95.60
13328;DHT22;6733;51.044;3.746;2023-02-28T18:49:51;4.70;95.90